createdAt,value
2023-03-26T00:01:34.112Z,6.31
2023-03-26T00:04:01.283Z,6.33
2023-03-26T00:06:36.826Z,6.28
2023-03-26T00:09:05.896Z,6.24
2023-03-26T00:11:32.860Z,6.19
2023-03-26T00:14:00.041Z,6.12
2023-03-26T00:16:30.131Z,6.10
2023-03-26T00:18:58.811Z,6.12
2023-03-26T00:21:28.873Z,6.23
2023-03-26T00:24:06.212Z,6.37
2023-03-26T00:26:35.634Z,6.51
2023-03-26T00:29:04.032Z,6.65
2023-03-26T00:31:32.003Z,6.75
2023-03-26T00:33:59.554Z,6.86
2023-03-26T00:36:27.278Z,6.98
2023-03-26T00:38:54.797Z,7.05
2023-03-26T00:41:25.645Z,7.13
2023-03-26T00:43:58.058Z,7.19
2023-03-26T00:46:26.722Z,7.23
2023-03-26T00:48:54.585Z,7.22
2023-03-26T00:51:22.111Z,7.22
2023-03-26T00:53:50.798Z,7.17
2023-03-26T00:56:19.075Z,7.16
2023-03-26T00:58:47.661Z,7.15
2023-03-26T01:01:18.990Z,7.13
2023-03-26T01:04:00.823Z,7.07
2023-03-26T01:06:36.044Z,6.99
2023-03-26T01:09:13.850Z,6.98
2023-03-26T01:11:41.418Z,6.99
2023-03-26T01:14:13.205Z,7.01
2023-03-26T01:16:58.102Z,7.05
2023-03-26T01:19:57.678Z,7.07
2023-03-26T01:22:27.605Z,7.10
2023-03-26T01:24:56.974Z,7.11
2023-03-26T01:27:42.339Z,7.12
2023-03-26T01:30:24.420Z,7.10
2023-03-26T01:33:18.541Z,7.05
2023-03-26T01:35:56.232Z,7.02
2023-03-26T01:38:33.179Z,7.04
2023-03-26T01:41:10.880Z,7.05
2023-03-26T01:43:46.652Z,7.05
2023-03-26T01:46:16.258Z,7.10
2023-03-26T01:48:45.915Z,7.09
2023-03-26T01:51:24.991Z,7.09
2023-03-26T01:53:54.573Z,7.05
2023-03-26T01:56:32.218Z,7.03
2023-03-26T01:59:21.406Z,7.04
2023-03-26T02:02:04.899Z,7.07
2023-03-26T02:04:35.999Z,7.05
2023-03-26T02:07:09.358Z,7.05
2023-03-26T02:09:47.423Z,7.01
2023-03-26T02:12:16.257Z,7.01
2023-03-26T02:14:44.473Z,7.01
2023-03-26T02:17:12.080Z,7.01
2023-03-26T02:19:42.390Z,6.96
2023-03-26T02:22:11.384Z,6.90
2023-03-26T02:24:38.935Z,6.89
2023-03-26T02:27:07.829Z,6.88
2023-03-26T02:29:37.927Z,6.90
2023-03-26T02:32:06.853Z,6.91
2023-03-26T02:34:34.028Z,6.91
2023-03-26T02:37:01.163Z,6.96
2023-03-26T02:39:28.940Z,6.95
2023-03-26T02:41:59.618Z,6.95
2023-03-26T02:44:29.135Z,6.96
2023-03-26T02:47:19.160Z,6.94
2023-03-26T02:49:51.869Z,6.90
2023-03-26T02:52:45.445Z,6.90
2023-03-26T02:55:12.777Z,6.91
2023-03-26T02:57:41.321Z,6.93
2023-03-26T03:00:14.505Z,6.91
2023-03-26T03:02:50.714Z,6.91
2023-03-26T03:05:47.327Z,6.88
2023-03-26T03:08:28.635Z,6.86
2023-03-26T03:11:22.588Z,6.84
2023-03-26T03:13:50.811Z,6.78
2023-03-26T03:16:21.826Z,6.71
2023-03-26T03:18:57.850Z,6.67
2023-03-26T03:21:34.419Z,6.65
2023-03-26T03:24:02.013Z,6.63
2023-03-26T03:26:34.240Z,6.66
2023-03-26T03:29:13.102Z,6.68
2023-03-26T03:31:41.390Z,6.70
2023-03-26T03:34:18.588Z,6.72
2023-03-26T03:36:50.103Z,6.74
2023-03-26T03:39:38.359Z,6.73
2023-03-26T03:42:05.433Z,6.71
2023-03-26T03:44:33.653Z,6.70
2023-03-26T03:47:04.350Z,6.70
2023-03-26T03:49:31.254Z,6.69
2023-03-26T03:51:59.142Z,6.72
2023-03-26T03:54:32.230Z,6.74
2023-03-26T03:57:10.612Z,6.79
2023-03-26T03:59:47.950Z,6.83
2023-03-26T04:02:34.930Z,6.85
2023-03-26T04:05:06.692Z,6.90
2023-03-26T04:07:35.375Z,6.96
2023-03-26T04:10:05.960Z,7.01
2023-03-26T04:12:52.304Z,7.03
2023-03-26T04:15:23.897Z,7.07
2023-03-26T04:17:52.654Z,7.07
2023-03-26T04:20:20.968Z,7.08
2023-03-26T04:22:49.811Z,7.11
2023-03-26T04:25:19.118Z,7.10
2023-03-26T04:27:58.520Z,7.13
2023-03-26T04:30:45.048Z,7.12
2023-03-26T04:33:33.663Z,7.10
2023-03-26T04:36:03.489Z,7.03
2023-03-26T04:38:42.282Z,6.93
2023-03-26T04:41:13.172Z,6.85
2023-03-26T04:43:50.829Z,6.80
2023-03-26T04:46:25.160Z,6.76
2023-03-26T04:49:03.493Z,6.78
2023-03-26T04:51:42.106Z,6.80
2023-03-26T04:54:25.095Z,6.82
2023-03-26T04:57:05.599Z,6.85
2023-03-26T04:59:43.558Z,6.90
2023-03-26T05:02:14.221Z,6.97
2023-03-26T05:04:53.834Z,6.99
2023-03-26T05:07:24.292Z,7.02
2023-03-26T05:09:57.536Z,7.05
2023-03-26T05:12:44.028Z,7.05
2023-03-26T05:15:18.722Z,7.10
2023-03-26T05:18:04.546Z,7.09
2023-03-26T05:20:58.063Z,7.07
2023-03-26T05:23:26.557Z,7.09
2023-03-26T05:26:07.752Z,7.10
2023-03-26T05:28:36.662Z,7.13
2023-03-26T05:31:15.600Z,7.16
2023-03-26T05:33:46.988Z,7.24
2023-03-26T05:36:15.967Z,7.28
2023-03-26T05:38:49.997Z,7.34
2023-03-26T05:41:55.847Z,7.39
2023-03-26T05:44:29.434Z,7.48
2023-03-26T05:46:57.058Z,7.53
2023-03-26T05:49:26.320Z,7.59
2023-03-26T05:51:55.537Z,7.70
2023-03-26T05:54:54.955Z,7.83
2023-03-26T05:57:42.433Z,8.00
2023-03-26T06:00:39.094Z,8.19
2023-03-26T06:03:12.792Z,8.35
2023-03-26T06:06:15.940Z,8.50
2023-03-26T06:09:02.247Z,8.58
2023-03-26T06:11:32.065Z,8.61
2023-03-26T06:14:01.365Z,8.60
2023-03-26T06:16:28.539Z,8.62
2023-03-26T06:19:15.886Z,8.67
2023-03-26T06:22:06.006Z,8.70
2023-03-26T06:24:49.262Z,8.80
2023-03-26T06:27:23.848Z,8.93
2023-03-26T06:30:10.037Z,9.08
2023-03-26T06:32:53.100Z,9.25
2023-03-26T06:35:24.720Z,9.35
2023-03-26T06:37:52.477Z,9.42
2023-03-26T06:40:19.382Z,9.47
2023-03-26T06:43:07.934Z,9.62
2023-03-26T06:45:55.778Z,9.64
2023-03-26T06:48:43.180Z,9.68
2023-03-26T06:51:13.520Z,9.88
2023-03-26T06:53:59.047Z,9.99
2023-03-26T06:56:45.186Z,10.34
2023-03-26T06:59:44.478Z,10.49
2023-03-26T07:02:37.321Z,10.62
2023-03-26T07:05:42.556Z,10.75
2023-03-26T07:08:31.653Z,11.10
2023-03-26T07:11:19.599Z,11.47
2023-03-26T07:14:05.915Z,11.91
2023-03-26T07:16:38.735Z,12.25
2023-03-26T07:19:35.774Z,12.49
2023-03-26T07:22:03.670Z,12.72
2023-03-26T07:24:51.718Z,13.02
2023-03-26T07:27:46.982Z,13.51
2023-03-26T07:30:49.606Z,13.85
2023-03-26T07:33:59.343Z,14.23
2023-03-26T07:36:56.434Z,14.65
2023-03-26T07:40:09.919Z,15.28
2023-03-26T07:43:33.394Z,15.38
2023-03-26T07:46:32.499Z,15.49
2023-03-26T07:49:23.456Z,15.54
2023-03-26T07:52:16.931Z,15.44
2023-03-26T07:54:47.389Z,15.25
2023-03-26T07:57:48.013Z,14.52
2023-03-26T08:00:37.941Z,13.82
2023-03-26T08:03:12.146Z,13.39
2023-03-26T08:06:20.355Z,12.96
2023-03-26T08:09:08.962Z,12.56
2023-03-26T08:12:02.787Z,12.27
2023-03-26T08:14:53.343Z,12.11
2023-03-26T08:18:00.226Z,11.88
2023-03-26T08:20:48.359Z,11.77
2023-03-26T08:23:33.037Z,11.72
2023-03-26T08:26:18.831Z,11.84
2023-03-26T08:29:02.891Z,12.33
2023-03-26T08:31:36.990Z,12.92
2023-03-26T08:34:04.232Z,13.48
2023-03-26T08:36:31.328Z,13.98
2023-03-26T08:39:01.915Z,14.28
2023-03-26T08:41:54.377Z,14.50
2023-03-26T08:44:45.819Z,14.47
2023-03-26T08:48:04.001Z,14.24
2023-03-26T08:50:58.240Z,13.93
2023-03-26T08:53:44.026Z,13.82
2023-03-26T08:56:51.516Z,13.94
2023-03-26T08:59:39.954Z,14.20
2023-03-26T09:02:35.890Z,14.66
2023-03-26T09:05:44.559Z,15.22
2023-03-26T09:08:30.882Z,16.06
2023-03-26T09:11:11.876Z,16.92
2023-03-26T09:13:59.538Z,17.81
2023-03-26T09:16:59.933Z,18.47
2023-03-26T09:19:55.989Z,18.81
2023-03-26T09:22:48.499Z,19.21
2023-03-26T09:25:41.999Z,19.51
2023-03-26T09:28:12.928Z,19.66
2023-03-26T09:31:05.026Z,19.91
2023-03-26T09:33:39.066Z,20.05
2023-03-26T09:36:21.927Z,20.30
2023-03-26T09:38:57.223Z,20.55
2023-03-26T09:41:36.843Z,20.73
2023-03-26T09:44:10.226Z,20.93
2023-03-26T09:47:19.896Z,21.20
2023-03-26T09:50:21.689Z,21.45
2023-03-26T09:53:27.392Z,21.75
2023-03-26T09:56:28.209Z,21.90
2023-03-26T09:59:07.479Z,21.87
2023-03-26T10:01:46.967Z,21.68
2023-03-26T10:04:14.043Z,21.40
2023-03-26T10:06:56.675Z,21.09
2023-03-26T10:09:45.536Z,20.70
2023-03-26T10:12:12.334Z,20.37
2023-03-26T10:15:09.598Z,19.95
2023-03-26T10:17:36.480Z,19.91
2023-03-26T10:20:29.985Z,19.66
2023-03-26T10:23:16.042Z,19.20
2023-03-26T10:26:05.049Z,18.61
2023-03-26T10:28:57.407Z,18.08
2023-03-26T10:31:36.375Z,17.61
2023-03-26T10:34:43.236Z,17.37
2023-03-26T10:37:45.867Z,17.02
2023-03-26T10:41:04.495Z,16.77
2023-03-26T10:44:09.233Z,16.61
2023-03-26T10:47:06.940Z,16.40
2023-03-26T10:49:42.656Z,16.41
2023-03-26T10:52:18.762Z,16.43
2023-03-26T10:55:09.895Z,16.44
2023-03-26T10:57:53.683Z,16.48
2023-03-26T11:00:27.182Z,16.54
2023-03-26T11:03:03.459Z,16.64
2023-03-26T11:05:52.017Z,16.70
2023-03-26T11:08:34.683Z,16.77
2023-03-26T11:11:01.582Z,16.84
2023-03-26T11:13:36.509Z,16.92
2023-03-26T11:16:49.931Z,17.05
2023-03-26T11:19:20.313Z,17.15
2023-03-26T11:22:00.596Z,17.30
2023-03-26T11:24:42.499Z,17.47
2023-03-26T11:27:44.651Z,17.52
2023-03-26T11:30:37.948Z,17.64
2023-03-26T11:33:10.039Z,17.77
2023-03-26T11:35:46.253Z,17.84
2023-03-26T11:38:38.316Z,17.96
2023-03-26T11:41:33.632Z,18.14
2023-03-26T11:44:28.141Z,18.23
2023-03-26T11:47:04.687Z,18.29
2023-03-26T11:49:32.869Z,18.35
2023-03-26T11:52:01.144Z,18.38
2023-03-26T11:54:28.013Z,18.38
2023-03-26T11:57:14.738Z,18.34
2023-03-26T11:59:56.518Z,18.38
2023-03-26T12:02:34.162Z,18.47
2023-03-26T12:05:21.628Z,18.55
2023-03-26T12:07:59.085Z,18.59
2023-03-26T12:10:38.686Z,18.52
2023-03-26T12:13:34.026Z,18.55
2023-03-26T12:16:14.979Z,18.58
2023-03-26T12:18:44.597Z,18.67
2023-03-26T12:21:17.201Z,18.73
2023-03-26T12:24:00.993Z,18.79
2023-03-26T12:26:31.794Z,18.93
2023-03-26T12:29:06.892Z,19.05
2023-03-26T12:31:56.999Z,19.11
2023-03-26T12:34:32.351Z,19.24
2023-03-26T12:37:02.676Z,19.30
2023-03-26T12:40:07.208Z,19.42
2023-03-26T12:44:48.224Z,19.48
2023-03-26T12:45:31.304Z,19.53
2023-03-26T12:48:04.334Z,19.59
2023-03-26T12:50:57.539Z,19.59
2023-03-26T12:53:38.151Z,19.62
2023-03-26T12:56:22.381Z,19.61
2023-03-26T12:59:29.929Z,19.68
2023-03-26T13:02:32.805Z,19.73
2023-03-26T13:05:09.858Z,19.74
2023-03-26T13:07:58.526Z,19.85
2023-03-26T13:11:05.517Z,19.91
2023-03-26T13:13:56.420Z,20.00
2023-03-26T13:16:31.351Z,20.03
2023-03-26T13:19:24.160Z,20.10
2023-03-26T13:21:53.102Z,20.17
2023-03-26T13:24:51.634Z,20.35
2023-03-26T13:27:18.347Z,20.54
2023-03-26T13:30:04.240Z,20.62
2023-03-26T13:32:59.151Z,20.70
2023-03-26T13:36:00.684Z,20.76
2023-03-26T13:39:02.162Z,20.79
2023-03-26T13:41:50.824Z,20.85
2023-03-26T13:45:04.859Z,20.94
2023-03-26T13:47:37.308Z,21.02
2023-03-26T13:50:25.726Z,21.06
2023-03-26T13:52:58.730Z,21.01
2023-03-26T13:55:38.034Z,21.08
2023-03-26T13:58:11.034Z,21.21
2023-03-26T14:01:05.319Z,21.38
2023-03-26T14:04:04.452Z,21.64
2023-03-26T14:06:58.313Z,21.91
2023-03-26T14:09:34.979Z,22.09
2023-03-26T14:12:22.133Z,22.18
2023-03-26T14:14:49.576Z,22.12
2023-03-26T14:17:41.202Z,22.20
2023-03-26T14:20:32.828Z,22.23
2023-03-26T14:23:29.117Z,22.38
2023-03-26T14:26:09.835Z,22.61
2023-03-26T14:29:14.665Z,22.85
2023-03-26T14:32:35.605Z,23.00
2023-03-26T14:35:14.013Z,23.24
2023-03-26T14:38:15.381Z,23.37
2023-03-26T14:41:11.584Z,23.35
2023-03-26T14:44:00.792Z,23.35
2023-03-26T14:46:35.692Z,23.17
2023-03-26T14:49:11.598Z,22.97
2023-03-26T14:51:52.223Z,22.78
2023-03-26T14:54:23.240Z,22.64
2023-03-26T14:57:11.394Z,22.53
2023-03-26T15:00:11.463Z,22.49
2023-03-26T15:03:40.539Z,22.40
2023-03-26T15:06:27.166Z,22.40
2023-03-26T15:09:03.896Z,22.36
2023-03-26T15:12:12.554Z,22.33
2023-03-26T15:14:44.964Z,22.38
2023-03-26T15:17:21.266Z,22.44
2023-03-26T15:20:06.349Z,22.43
2023-03-26T15:23:03.772Z,22.38
2023-03-26T15:25:49.634Z,22.34
2023-03-26T15:28:49.353Z,22.18
2023-03-26T15:31:51.004Z,21.98
2023-03-26T15:34:42.845Z,21.78
2023-03-26T15:37:28.849Z,21.58
2023-03-26T15:40:13.330Z,21.48
2023-03-26T15:43:09.353Z,21.38
2023-03-26T15:45:42.642Z,21.29
2023-03-26T15:48:12.529Z,21.27
2023-03-26T15:51:28.518Z,21.25
2023-03-26T15:53:55.921Z,21.23
2023-03-26T15:56:54.993Z,21.18
2023-03-26T16:00:15.457Z,21.06
2023-03-26T16:03:12.241Z,20.95
2023-03-26T16:06:14.707Z,20.80
2023-03-26T16:09:08.584Z,20.58
2023-03-26T16:11:55.840Z,20.39
2023-03-26T16:14:26.418Z,20.18
2023-03-26T16:16:54.097Z,20.03
2023-03-26T16:19:21.886Z,19.87
2023-03-26T16:22:07.624Z,19.75
2023-03-26T16:24:40.977Z,19.63
2023-03-26T16:27:15.320Z,19.53
2023-03-26T16:30:09.592Z,19.40
2023-03-26T16:32:48.455Z,19.29
2023-03-26T16:35:15.617Z,19.20
2023-03-26T16:38:10.788Z,19.14
2023-03-26T16:40:51.438Z,18.97
2023-03-26T16:43:58.811Z,18.79
2023-03-26T16:46:43.788Z,18.57
2023-03-26T16:49:35.274Z,18.41
2023-03-26T16:52:07.566Z,18.28
2023-03-26T16:55:20.670Z,18.18
2023-03-26T16:57:58.287Z,18.18
2023-03-26T17:00:41.885Z,18.07
2023-03-26T17:03:39.069Z,17.92
2023-03-26T17:06:29.423Z,17.73
2023-03-26T17:09:17.588Z,17.51
2023-03-26T17:11:58.060Z,17.31
2023-03-26T17:14:48.899Z,17.17
2023-03-26T17:17:36.845Z,16.93
2023-03-26T17:20:26.293Z,16.73
2023-03-26T17:23:21.626Z,16.50
2023-03-26T17:26:26.549Z,16.28
2023-03-26T17:29:25.621Z,16.26
2023-03-26T17:32:01.067Z,16.32
2023-03-26T17:34:48.836Z,16.16
2023-03-26T17:37:21.671Z,16.14
2023-03-26T17:40:01.576Z,16.03
2023-03-26T17:42:33.456Z,15.81
2023-03-26T17:45:15.819Z,15.56
2023-03-26T17:47:50.428Z,15.32
2023-03-26T17:50:22.968Z,15.12
2023-03-26T17:52:57.620Z,14.94
2023-03-26T17:55:34.168Z,14.85
2023-03-26T17:58:07.573Z,14.74
2023-03-26T18:00:44.821Z,14.66
2023-03-26T18:03:19.814Z,14.55
2023-03-26T18:05:47.800Z,14.48
2023-03-26T18:08:26.639Z,14.44
2023-03-26T18:11:14.449Z,14.40
2023-03-26T18:14:15.540Z,14.39
2023-03-26T18:16:51.570Z,14.35
2023-03-26T18:19:23.026Z,14.29
2023-03-26T18:21:58.260Z,14.22
2023-03-26T18:24:45.146Z,14.11
2023-03-26T18:27:15.778Z,14.01
2023-03-26T18:30:01.984Z,13.86
2023-03-26T18:32:34.185Z,13.69
2023-03-26T18:35:17.133Z,13.51
2023-03-26T18:37:46.136Z,13.41
2023-03-26T18:40:20.561Z,13.30
2023-03-26T18:43:01.652Z,13.23
2023-03-26T18:45:36.706Z,13.20
2023-03-26T18:48:19.790Z,13.10
2023-03-26T18:50:51.906Z,13.02
2023-03-26T18:53:23.569Z,13.14
2023-03-26T18:55:51.801Z,13.11
2023-03-26T18:58:31.443Z,13.09
2023-03-26T19:01:23.853Z,12.95
2023-03-26T19:03:54.287Z,12.82
2023-03-26T19:06:23.855Z,12.71
2023-03-26T19:08:53.574Z,12.58
2023-03-26T19:11:21.681Z,12.44
2023-03-26T19:14:15.873Z,12.29
2023-03-26T19:16:50.858Z,12.17
2023-03-26T19:19:23.177Z,12.07
2023-03-26T19:21:51.621Z,12.13
2023-03-26T19:24:21.418Z,12.56
2023-03-26T19:26:48.836Z,12.61
2023-03-26T19:29:20.212Z,12.58
2023-03-26T19:31:53.390Z,12.47
2023-03-26T19:34:26.440Z,12.38
2023-03-26T19:37:01.833Z,12.26
2023-03-26T19:39:42.054Z,12.19
2023-03-26T19:42:15.170Z,12.14
2023-03-26T19:44:43.572Z,12.04
2023-03-26T19:47:31.877Z,11.98
2023-03-26T19:50:28.419Z,11.91
2023-03-26T19:53:22.466Z,11.86
2023-03-26T19:56:11.775Z,11.77
2023-03-26T19:58:42.526Z,11.66
2023-03-26T20:01:24.922Z,11.57
2023-03-26T20:03:58.115Z,11.49
2023-03-26T20:06:41.744Z,11.38
2023-03-26T20:09:12.656Z,11.32
2023-03-26T20:11:40.941Z,11.24
2023-03-26T20:14:25.812Z,11.12
2023-03-26T20:16:53.127Z,11.01
2023-03-26T20:19:20.592Z,10.96
2023-03-26T20:21:48.962Z,10.87
2023-03-26T20:24:17.825Z,10.81
2023-03-26T20:26:46.127Z,10.72
2023-03-26T20:29:13.607Z,10.62
2023-03-26T20:31:43.742Z,10.53
2023-03-26T20:34:18.625Z,10.44
2023-03-26T20:36:47.157Z,10.41
2023-03-26T20:39:14.614Z,10.42
2023-03-26T20:41:48.324Z,10.51
2023-03-26T20:44:18.199Z,10.65
2023-03-26T20:46:48.315Z,10.68
2023-03-26T20:49:15.987Z,10.66
2023-03-26T20:51:45.329Z,10.59
2023-03-26T20:54:16.186Z,10.55
2023-03-26T20:56:43.508Z,10.48
2023-03-26T20:59:11.816Z,10.44
2023-03-26T21:01:38.946Z,10.44
2023-03-26T21:04:06.716Z,10.49
2023-03-26T21:06:33.552Z,10.55
2023-03-26T21:09:00.942Z,10.62
2023-03-26T21:12:05.129Z,10.67
2023-03-26T21:14:44.178Z,10.72
2023-03-26T21:17:17.480Z,10.75
2023-03-26T21:19:45.836Z,10.82
2023-03-26T21:22:25.835Z,10.80
2023-03-26T21:25:06.183Z,10.80
2023-03-26T21:27:51.606Z,10.93
2023-03-26T21:30:18.836Z,10.93
2023-03-26T21:32:46.790Z,10.95
2023-03-26T21:35:16.620Z,11.09
2023-03-26T21:37:49.048Z,11.12
2023-03-26T21:40:18.784Z,11.15
2023-03-26T21:42:48.283Z,11.18
2023-03-26T21:45:16.208Z,11.19
2023-03-26T21:47:43.653Z,11.29
2023-03-26T21:50:14.277Z,11.38
2023-03-26T21:52:47.344Z,11.43
2023-03-26T21:55:21.820Z,11.55
2023-03-26T21:58:13.354Z,11.61
2023-03-26T22:01:16.748Z,11.61
2023-03-26T22:03:55.082Z,11.56
2023-03-26T22:06:43.246Z,11.48
2023-03-26T22:09:12.948Z,11.48
2023-03-26T22:11:42.650Z,11.52
2023-03-26T22:14:11.811Z,11.62
2023-03-26T22:16:38.731Z,11.74
2023-03-26T22:19:07.408Z,11.81
2023-03-26T22:21:36.421Z,11.84
2023-03-26T22:24:04.277Z,11.81
2023-03-26T22:26:31.954Z,11.83
2023-03-26T22:28:59.456Z,11.84
2023-03-26T22:31:26.544Z,11.87
2023-03-26T22:33:55.491Z,11.98
2023-03-26T22:36:23.661Z,12.04
2023-03-26T22:38:55.752Z,12.06
2023-03-26T22:41:23.092Z,12.06
2023-03-26T22:43:54.610Z,12.05
2023-03-26T22:46:22.811Z,11.98
2023-03-26T22:48:50.851Z,11.96
2023-03-26T22:51:19.275Z,11.89
2023-03-26T22:53:46.065Z,11.82
2023-03-26T22:56:14.900Z,11.75
2023-03-26T22:58:42.399Z,11.73
2023-03-26T23:01:12.628Z,11.69
2023-03-26T23:03:39.694Z,11.69
2023-03-26T23:06:09.783Z,11.69
2023-03-26T23:08:38.285Z,11.69
2023-03-26T23:11:20.007Z,11.68
2023-03-26T23:13:47.752Z,11.68
2023-03-26T23:16:16.791Z,11.68
2023-03-26T23:18:44.474Z,11.64
2023-03-26T23:21:20.183Z,11.57
2023-03-26T23:23:49.240Z,11.59
2023-03-26T23:26:16.952Z,11.68
2023-03-26T23:28:44.045Z,11.75
2023-03-26T23:31:12.948Z,11.85
2023-03-26T23:33:46.167Z,11.88
2023-03-26T23:36:18.369Z,11.90
2023-03-26T23:38:47.438Z,11.88
2023-03-26T23:41:16.353Z,11.86
2023-03-26T23:43:54.707Z,11.81
2023-03-26T23:46:24.845Z,12.17
2023-03-26T23:48:52.282Z,12.19
2023-03-26T23:51:20.442Z,12.22
2023-03-26T23:53:49.668Z,12.21
2023-03-26T23:56:17.258Z,12.20
2023-03-26T23:58:44.406Z,12.21
